aviador You're here:

KFAY Decoded Metar

FAYETTEVILLE in NC, USA
Report Time2018-01-17 17:53:00
UTC Time2018-01-17 18:15:15
Flight Rules mvfr MVFR
Wind030° at 09 kt
W.Decomp.*RWY 04: 9.0 kt HW 0.5 kt LCW
RWY 10: 4.1 kt HW 8 kt LCW
W.Rank030° ranks 3
Current wind is above 030° avg. (7.2)
Visibility8047 m
Phenomena:Light Rain
Mist
Clouds:Overcast 028 Hf
Expected CloudBase > 800 ft AGL from Temp-Dew spread
Ceiling2,800 ft
Temp04°C (ISA -11)
Dew Point02°C (87% RH)
AAT-0.9°C
QNH1023 hPa
Density Alt-1,352 ft
Elevation180 ft
Report Wrong Elevation
Raw Report
KFAY 171753Z 03009KT 5SM -RA BR OVC028 04/02 A3020 RMK AO2 RAB02
SLP224 P0000 60000 T00390022 10050 20011 58016=

Extra information for KFAY:More info

Metar Taf Metar & Taf Last 4 Metars F.Rules Stats Wind Profile Meteogram Temp Stats Airport Information Weather charts Add Link Nearby VenuesMetar ALERT Operation Metar Decoded Social comments

AIRNAV info for KFAY